createdAt,value
2022-11-15T00:00:28.436Z,15.40
2022-11-15T00:01:28.459Z,12.80
2022-11-15T00:02:28.454Z,14.50
2022-11-15T00:03:28.668Z,14.90
2022-11-15T00:04:28.406Z,12.10
2022-11-15T00:05:28.399Z,12.60
2022-11-15T00:06:28.397Z,13.40
2022-11-15T00:07:53.979Z,12.40
2022-11-15T00:08:28.358Z,12.70
2022-11-15T00:09:28.379Z,13.70
2022-11-15T00:10:28.354Z,12.60
2022-11-15T00:11:28.332Z,12.30
2022-11-15T00:12:28.331Z,12.70
2022-11-15T00:13:28.622Z,12.40
2022-11-15T00:14:28.292Z,11.70
2022-11-15T00:15:28.297Z,12.00
2022-11-15T00:16:28.269Z,12.30
2022-11-15T00:17:28.271Z,11.80
2022-11-15T00:18:28.258Z,11.80
2022-11-15T00:19:28.253Z,12.00
2022-11-15T00:20:28.240Z,12.10
2022-11-15T00:21:28.252Z,12.10
2022-11-15T00:22:28.207Z,11.70
2022-11-15T00:23:28.399Z,11.90
2022-11-15T00:24:28.193Z,11.60
2022-11-15T00:25:28.186Z,11.40
2022-11-15T00:26:28.184Z,11.30
2022-11-15T00:27:28.174Z,11.90
2022-11-15T00:28:28.183Z,11.40
2022-11-15T00:29:28.164Z,12.20
2022-11-15T00:30:28.171Z,11.50
2022-11-15T00:31:28.143Z,11.10
2022-11-15T00:32:28.103Z,12.00
2022-11-15T00:33:28.267Z,11.80
2022-11-15T00:34:28.094Z,12.40
2022-11-15T00:35:28.128Z,11.90
2022-11-15T00:36:28.075Z,11.90
2022-11-15T00:37:28.065Z,11.70
2022-11-15T00:38:28.056Z,11.20
2022-11-15T00:39:28.035Z,11.40
2022-11-15T00:40:28.051Z,11.00
2022-11-15T00:41:28.011Z,10.90
2022-11-15T00:42:28.030Z,11.20
2022-11-15T00:43:28.167Z,11.20
2022-11-15T00:44:28.000Z,12.00
2022-11-15T00:45:27.990Z,10.70
2022-11-15T00:46:27.992Z,10.50
2022-11-15T00:47:27.961Z,11.70
2022-11-15T00:48:27.968Z,11.20
2022-11-15T00:49:27.935Z,11.60
2022-11-15T00:50:27.930Z,11.00
2022-11-15T00:51:27.922Z,10.30
2022-11-15T00:52:27.910Z,10.90
2022-11-15T00:53:27.890Z,10.60
2022-11-15T00:54:27.892Z,11.40
2022-11-15T00:55:27.866Z,11.00
2022-11-15T00:56:27.901Z,11.30
2022-11-15T00:57:27.847Z,10.70
2022-11-15T00:58:27.848Z,10.50
2022-11-15T00:59:27.826Z,10.80
2022-11-15T01:00:27.828Z,10.60
2022-11-15T01:01:27.867Z,11.00
2022-11-15T01:02:27.830Z,10.50
2022-11-15T01:03:27.990Z,10.80
2022-11-15T01:04:27.785Z,10.50
2022-11-15T01:05:27.762Z,11.10
2022-11-15T01:06:27.767Z,10.30
2022-11-15T01:07:27.797Z,10.80
2022-11-15T01:08:27.745Z,10.40
2022-11-15T01:09:27.725Z,11.50
2022-11-15T01:10:27.728Z,10.00
2022-11-15T01:11:27.697Z,10.50
2022-11-15T01:12:27.732Z,10.50
2022-11-15T01:13:27.801Z,10.50
2022-11-15T01:14:27.684Z,10.60
2022-11-15T01:15:27.674Z,11.00
2022-11-15T01:16:27.661Z,11.20
2022-11-15T01:17:27.638Z,11.70
2022-11-15T01:18:27.661Z,11.30
2022-11-15T01:19:27.688Z,11.20
2022-11-15T01:20:27.635Z,10.90
2022-11-15T01:21:27.620Z,10.60
2022-11-15T01:22:27.599Z,11.00
2022-11-15T01:23:27.593Z,10.80
2022-11-15T01:24:27.579Z,10.70
2022-11-15T01:25:27.563Z,10.80
2022-11-15T01:26:27.561Z,10.60
2022-11-15T01:27:27.537Z,11.60
2022-11-15T01:28:27.564Z,10.80
2022-11-15T01:29:27.523Z,10.80
2022-11-15T01:30:27.523Z,10.60
2022-11-15T01:31:27.496Z,10.30
2022-11-15T01:32:27.497Z,10.90
2022-11-15T01:33:27.565Z,10.70
2022-11-15T01:34:27.503Z,10.00
2022-11-15T01:35:27.454Z,11.20
2022-11-15T01:36:27.453Z,11.20
2022-11-15T01:37:27.435Z,10.40
2022-11-15T01:38:27.441Z,10.00
2022-11-15T01:39:27.439Z,10.10
2022-11-15T01:40:27.436Z,10.20
2022-11-15T01:41:27.388Z,10.20
2022-11-15T01:42:27.395Z,10.70
2022-11-15T01:43:27.450Z,11.00
2022-11-15T01:44:27.393Z,10.40
2022-11-15T01:45:27.354Z,9.80
2022-11-15T01:46:27.355Z,11.20
2022-11-15T01:47:27.328Z,10.60
2022-11-15T01:48:27.337Z,10.60
2022-11-15T01:49:27.309Z,11.50
2022-11-15T01:50:27.346Z,10.80
2022-11-15T01:51:27.288Z,11.40
2022-11-15T01:52:27.293Z,10.50
2022-11-15T01:53:27.272Z,10.60
2022-11-15T01:54:27.274Z,11.50
2022-11-15T01:55:27.275Z,11.30
2022-11-15T01:56:27.260Z,11.00
2022-11-15T01:57:27.226Z,10.60
2022-11-15T01:58:27.243Z,11.10
2022-11-15T01:59:27.209Z,10.70
2022-11-15T02:00:27.233Z,11.40
2022-11-15T02:01:27.235Z,11.40
2022-11-15T02:02:27.187Z,11.50
2022-11-15T02:03:27.162Z,11.20
2022-11-15T02:04:27.192Z,11.30
2022-11-15T02:05:27.140Z,11.00
2022-11-15T02:06:27.157Z,11.70
2022-11-15T02:07:27.197Z,11.00
2022-11-15T02:08:27.127Z,11.90
2022-11-15T02:09:27.100Z,12.00
2022-11-15T02:10:27.107Z,11.30
2022-11-15T02:11:27.118Z,11.80
2022-11-15T02:12:27.089Z,11.80
2022-11-15T02:13:27.057Z,11.90
2022-11-15T02:14:27.076Z,11.40
2022-11-15T02:15:27.067Z,12.30
2022-11-15T02:16:27.067Z,12.30
2022-11-15T02:17:27.026Z,11.70
2022-11-15T02:18:27.019Z,11.90
2022-11-15T02:19:27.002Z,11.60
2022-11-15T02:20:26.998Z,11.60
2022-11-15T02:21:26.978Z,12.50
2022-11-15T02:22:26.996Z,12.10
2022-11-15T02:23:26.959Z,11.90
2022-11-15T02:24:26.957Z,12.70
2022-11-15T02:25:26.939Z,12.60
2022-11-15T02:26:26.939Z,12.30
2022-11-15T02:27:26.930Z,12.40
2022-11-15T02:28:26.920Z,12.10
2022-11-15T02:29:26.901Z,12.30
2022-11-15T02:30:26.904Z,12.30
2022-11-15T02:31:26.873Z,11.60
2022-11-15T02:32:26.889Z,12.10
2022-11-15T02:33:26.865Z,11.90
2022-11-15T02:34:26.864Z,12.80
2022-11-15T02:35:26.832Z,12.20
2022-11-15T02:36:26.842Z,12.40
2022-11-15T02:37:26.822Z,12.70
2022-11-15T02:38:26.825Z,12.90
2022-11-15T02:39:26.792Z,12.40
2022-11-15T02:40:26.801Z,12.60
2022-11-15T02:41:26.775Z,12.50
2022-11-15T02:42:26.777Z,12.80
2022-11-15T02:43:26.768Z,13.20
2022-11-15T02:44:26.758Z,13.10
2022-11-15T02:45:26.730Z,13.50
2022-11-15T02:46:26.734Z,13.30
2022-11-15T02:47:26.710Z,13.00
2022-11-15T02:48:26.725Z,13.30
2022-11-15T02:49:26.686Z,13.70
2022-11-15T02:50:26.701Z,14.00
2022-11-15T02:51:26.667Z,13.50
2022-11-15T02:52:26.676Z,12.80
2022-11-15T02:53:26.687Z,13.50
2022-11-15T02:54:26.670Z,13.60
2022-11-15T02:55:26.629Z,13.60
2022-11-15T02:56:26.641Z,12.90
2022-11-15T02:57:26.604Z,13.30
2022-11-15T02:58:26.638Z,13.70
2022-11-15T02:59:26.598Z,13.40
2022-11-15T03:00:26.586Z,13.20
2022-11-15T03:01:26.651Z,13.70
2022-11-15T03:02:26.571Z,13.20
2022-11-15T03:03:26.553Z,13.30
2022-11-15T03:04:26.573Z,13.10
2022-11-15T03:05:26.522Z,13.10
2022-11-15T03:06:26.528Z,13.30
2022-11-15T03:07:26.569Z,13.20
2022-11-15T03:08:26.511Z,12.70
2022-11-15T03:09:26.492Z,12.80
2022-11-15T03:10:26.498Z,12.70
2022-11-15T03:11:26.462Z,12.70
2022-11-15T03:12:26.462Z,12.20
2022-11-15T03:13:26.441Z,12.60
2022-11-15T03:14:26.455Z,12.00
2022-11-15T03:15:26.429Z,12.10
2022-11-15T03:16:26.421Z,12.00
2022-11-15T03:17:26.411Z,12.00
2022-11-15T03:18:26.398Z,11.50
2022-11-15T03:19:26.376Z,12.00
2022-11-15T03:20:26.402Z,11.90
2022-11-15T03:21:26.356Z,11.90
2022-11-15T03:22:26.365Z,11.80
2022-11-15T03:23:26.334Z,12.40
2022-11-15T03:24:26.413Z,11.60
2022-11-15T03:25:26.340Z,11.30
2022-11-15T03:26:26.343Z,11.80
2022-11-15T03:27:26.322Z,11.60
2022-11-15T03:28:26.296Z,11.00
2022-11-15T03:29:26.311Z,11.60
2022-11-15T03:30:26.284Z,11.20
2022-11-15T03:31:26.281Z,11.60
2022-11-15T03:32:26.256Z,11.40
2022-11-15T03:33:26.231Z,11.60
2022-11-15T03:34:26.262Z,11.60
2022-11-15T03:35:26.210Z,12.00
2022-11-15T03:36:26.238Z,11.80
2022-11-15T03:37:26.230Z,11.40
2022-11-15T03:38:26.300Z,11.90
2022-11-15T03:39:26.171Z,11.60
2022-11-15T03:40:26.170Z,11.40
2022-11-15T03:41:26.168Z,11.90
2022-11-15T03:42:26.165Z,11.10
2022-11-15T03:43:26.131Z,11.20
2022-11-15T03:44:26.131Z,11.50
2022-11-15T03:45:26.105Z,11.10
2022-11-15T03:46:26.114Z,11.60
2022-11-15T03:47:26.096Z,11.50
2022-11-15T03:48:26.088Z,11.40
2022-11-15T03:49:26.069Z,10.30
2022-11-15T03:50:26.070Z,11.00
2022-11-15T03:51:26.052Z,10.30
2022-11-15T03:52:26.079Z,10.20
2022-11-15T03:53:26.022Z,10.30
2022-11-15T03:54:26.028Z,11.70
2022-11-15T03:55:26.003Z,10.00
2022-11-15T03:56:26.040Z,10.70
2022-11-15T03:57:25.997Z,10.80
2022-11-15T03:58:25.996Z,10.60
2022-11-15T03:59:25.965Z,11.10
2022-11-15T04:00:25.977Z,10.50
2022-11-15T04:01:26.044Z,10.40
2022-11-15T04:02:25.949Z,11.10
2022-11-15T04:03:25.975Z,10.50
2022-11-15T04:04:25.927Z,10.00
2022-11-15T04:05:25.928Z,10.60
2022-11-15T04:06:25.900Z,10.60
2022-11-15T04:07:25.928Z,10.90
2022-11-15T04:08:25.908Z,10.40
2022-11-15T04:09:25.868Z,10.70
2022-11-15T04:10:25.861Z,10.40
2022-11-15T04:11:25.842Z,10.30
2022-11-15T04:12:25.883Z,10.50
2022-11-15T04:13:25.828Z,9.30
2022-11-15T04:14:25.894Z,9.60
2022-11-15T04:15:25.843Z,9.60
2022-11-15T04:16:25.810Z,9.30
2022-11-15T04:17:25.794Z,9.20
2022-11-15T04:18:25.783Z,9.40
2022-11-15T04:19:25.782Z,8.90
2022-11-15T04:20:25.766Z,8.80
2022-11-15T04:21:25.740Z,8.20
2022-11-15T04:22:25.741Z,7.80
2022-11-15T04:23:25.714Z,8.00
2022-11-15T04:24:25.736Z,8.10
2022-11-15T04:25:31.099Z,7.50
2022-11-15T04:26:25.702Z,7.40
2022-11-15T04:27:25.689Z,7.10
2022-11-15T04:28:25.672Z,7.40
2022-11-15T04:29:25.666Z,7.90
2022-11-15T04:30:25.663Z,7.50
2022-11-15T04:31:25.645Z,7.40
2022-11-15T04:32:25.622Z,7.40
2022-11-15T04:33:25.636Z,7.60
2022-11-15T04:34:25.609Z,7.50
2022-11-15T04:35:25.614Z,7.30
2022-11-15T04:36:25.592Z,7.90
2022-11-15T04:37:25.592Z,7.20
2022-11-15T04:38:25.563Z,6.80
2022-11-15T04:39:25.572Z,7.50
2022-11-15T04:40:25.559Z,7.40
2022-11-15T04:41:25.553Z,7.40
2022-11-15T04:42:25.516Z,7.70
2022-11-15T04:43:25.519Z,7.60
2022-11-15T04:44:25.494Z,7.80
2022-11-15T04:45:25.497Z,7.60
2022-11-15T04:46:25.495Z,7.80
2022-11-15T04:47:25.480Z,8.40
2022-11-15T04:48:25.453Z,8.60
2022-11-15T04:49:25.445Z,8.00
2022-11-15T04:50:25.465Z,8.40
2022-11-15T04:51:25.446Z,8.10
2022-11-15T04:52:25.426Z,8.50
2022-11-15T04:53:25.405Z,8.10
2022-11-15T04:54:25.408Z,8.40
2022-11-15T04:55:25.384Z,8.30
2022-11-15T04:56:25.398Z,9.00
2022-11-15T04:57:25.364Z,8.50
2022-11-15T04:58:25.374Z,8.80
2022-11-15T04:59:25.341Z,8.60
2022-11-15T05:00:25.344Z,8.60
2022-11-15T05:01:25.358Z,8.70
2022-11-15T05:02:25.363Z,8.60
2022-11-15T05:03:25.308Z,8.90
2022-11-15T05:04:25.315Z,9.00
2022-11-15T05:05:25.276Z,8.80
2022-11-15T05:06:25.289Z,8.60
2022-11-15T05:07:25.362Z,8.70
2022-11-15T05:08:25.269Z,8.80
2022-11-15T05:09:25.244Z,8.70
2022-11-15T05:10:25.240Z,8.80
2022-11-15T05:11:25.217Z,8.70
2022-11-15T05:12:25.241Z,8.40
2022-11-15T05:13:25.202Z,8.60
2022-11-15T05:14:25.198Z,8.60
2022-11-15T05:15:25.178Z,9.40
2022-11-15T05:16:25.188Z,8.70
2022-11-15T05:17:25.153Z,8.20
2022-11-15T05:18:25.169Z,9.10
2022-11-15T05:19:25.135Z,8.40
2022-11-15T05:20:25.136Z,8.70
2022-11-15T05:21:25.116Z,8.80
2022-11-15T05:22:25.117Z,8.80
2022-11-15T05:23:25.117Z,8.80
2022-11-15T05:24:25.103Z,8.70
2022-11-15T05:25:25.072Z,8.80
2022-11-15T05:26:25.078Z,9.30
2022-11-15T05:27:25.055Z,8.80
2022-11-15T05:28:25.078Z,9.40
2022-11-15T05:29:25.031Z,8.90
2022-11-15T05:30:25.030Z,9.40
2022-11-15T05:31:25.017Z,9.00
2022-11-15T05:32:25.011Z,9.10
2022-11-15T05:33:24.988Z,9.00
2022-11-15T05:34:25.005Z,9.40
2022-11-15T05:35:24.988Z,8.80
2022-11-15T05:36:24.977Z,8.90
2022-11-15T05:37:24.947Z,8.90
2022-11-15T05:38:24.953Z,9.10
2022-11-15T05:39:24.944Z,8.70
2022-11-15T05:40:24.933Z,8.50
2022-11-15T05:41:24.941Z,9.40
2022-11-15T05:42:24.915Z,8.30
2022-11-15T05:43:24.885Z,8.90
2022-11-15T05:44:24.913Z,9.00
2022-11-15T05:45:27.124Z,8.90
2022-11-15T05:46:24.869Z,8.70
2022-11-15T05:47:24.842Z,9.20
2022-11-15T05:48:24.841Z,9.00
2022-11-15T05:49:24.824Z,8.70
2022-11-15T05:50:24.833Z,9.10
2022-11-15T05:51:24.805Z,8.80
2022-11-15T05:52:24.817Z,8.90
2022-11-15T05:53:24.778Z,8.10
2022-11-15T05:54:24.782Z,8.30
2022-11-15T05:55:24.777Z,7.70
2022-11-15T05:56:24.760Z,7.80
2022-11-15T05:57:24.738Z,7.50
2022-11-15T05:58:24.738Z,7.60
2022-11-15T05:59:24.738Z,7.30
2022-11-15T06:00:24.734Z,7.20
2022-11-15T06:01:24.696Z,6.70
2022-11-15T06:02:24.805Z,6.10
2022-11-15T06:03:24.674Z,6.20
2022-11-15T06:04:24.686Z,5.80
2022-11-15T06:05:24.662Z,6.30
2022-11-15T06:06:24.666Z,6.10
2022-11-15T06:07:24.690Z,6.00
2022-11-15T06:08:24.651Z,6.00
2022-11-15T06:09:24.618Z,6.00
2022-11-15T06:10:24.631Z,6.20
2022-11-15T06:11:24.609Z,5.90
2022-11-15T06:12:24.613Z,5.70
2022-11-15T06:13:24.572Z,5.80
2022-11-15T06:14:24.579Z,5.60
2022-11-15T06:15:24.553Z,5.90
2022-11-15T06:16:24.579Z,5.90
2022-11-15T06:17:24.534Z,5.90
2022-11-15T06:18:24.542Z,6.10
2022-11-15T06:19:24.510Z,5.90
2022-11-15T06:20:24.520Z,6.00
2022-11-15T06:21:24.496Z,5.60
2022-11-15T06:22:24.506Z,6.30
2022-11-15T06:23:26.228Z,6.10
2022-11-15T06:24:24.472Z,5.80
2022-11-15T06:25:24.451Z,5.60
2022-11-15T06:26:24.450Z,5.50
2022-11-15T06:27:24.445Z,5.60
2022-11-15T06:28:24.439Z,6.10
2022-11-15T06:29:24.407Z,5.20
2022-11-15T06:30:24.417Z,5.80
2022-11-15T06:31:24.385Z,5.60
2022-11-15T06:32:24.405Z,5.50
2022-11-15T06:33:24.377Z,5.70
2022-11-15T06:34:24.378Z,5.80
2022-11-15T06:35:24.344Z,5.50
2022-11-15T06:36:24.375Z,5.70
2022-11-15T06:37:24.322Z,5.60
2022-11-15T06:38:24.341Z,5.80
2022-11-15T06:39:24.313Z,6.20
2022-11-15T06:40:24.306Z,7.70
2022-11-15T06:41:24.280Z,7.70
2022-11-15T06:42:24.283Z,7.20
2022-11-15T06:43:24.288Z,7.50
2022-11-15T06:44:24.285Z,6.50
2022-11-15T06:45:24.249Z,7.20
2022-11-15T06:46:24.245Z,7.20
2022-11-15T06:47:24.230Z,7.00
2022-11-15T06:48:24.250Z,7.00
2022-11-15T06:49:24.201Z,6.70
2022-11-15T06:50:24.231Z,6.90
2022-11-15T06:51:24.182Z,7.00
2022-11-15T06:52:24.184Z,6.40
2022-11-15T06:53:24.161Z,6.80
2022-11-15T06:54:24.177Z,6.50
2022-11-15T06:55:24.137Z,6.20
2022-11-15T06:56:24.164Z,6.50
2022-11-15T06:57:24.125Z,5.80
2022-11-15T06:58:24.120Z,5.80
2022-11-15T06:59:24.112Z,5.90
2022-11-15T07:00:24.099Z,6.20
2022-11-15T07:01:24.164Z,5.80
2022-11-15T07:02:24.092Z,6.00
2022-11-15T07:03:24.051Z,6.00
2022-11-15T07:04:24.082Z,5.80
2022-11-15T07:05:24.034Z,6.10
2022-11-15T07:06:24.041Z,5.50
2022-11-15T07:07:24.135Z,5.30
2022-11-15T07:08:24.032Z,5.30
2022-11-15T07:09:24.003Z,5.20
2022-11-15T07:10:24.008Z,5.40
2022-11-15T07:11:23.973Z,5.60
2022-11-15T07:12:23.983Z,5.30
2022-11-15T07:13:23.952Z,5.20
2022-11-15T07:14:23.954Z,5.00
2022-11-15T07:15:23.940Z,4.90
2022-11-15T07:16:23.933Z,5.00
2022-11-15T07:17:23.924Z,4.80
2022-11-15T07:18:23.916Z,4.70
2022-11-15T07:19:23.887Z,4.90
2022-11-15T07:20:23.927Z,4.80
2022-11-15T07:21:27.521Z,4.40
2022-11-15T07:22:23.879Z,4.60
2022-11-15T07:23:23.849Z,4.10
2022-11-15T07:24:23.850Z,4.30
2022-11-15T07:25:23.836Z,4.10
2022-11-15T07:26:23.838Z,4.20
2022-11-15T07:27:23.813Z,4.30
2022-11-15T07:28:23.807Z,4.20
2022-11-15T07:29:23.796Z,4.20
2022-11-15T07:30:23.802Z,4.40
2022-11-15T07:31:23.774Z,4.20
2022-11-15T07:32:23.790Z,4.30
2022-11-15T07:33:23.754Z,4.30
2022-11-15T07:34:23.750Z,3.70
2022-11-15T07:35:23.724Z,3.20
2022-11-15T07:36:23.736Z,3.20
2022-11-15T07:37:23.710Z,3.10
2022-11-15T07:38:23.712Z,3.50
2022-11-15T07:39:23.697Z,3.20
2022-11-15T07:40:23.682Z,3.20
2022-11-15T07:41:23.669Z,3.00
2022-11-15T07:42:23.677Z,3.00
2022-11-15T07:43:23.638Z,3.10
2022-11-15T07:44:23.654Z,3.00
2022-11-15T07:45:23.619Z,3.20
2022-11-15T07:46:23.621Z,2.90
2022-11-15T07:47:23.617Z,3.00
2022-11-15T07:48:23.602Z,3.10
2022-11-15T07:49:23.579Z,2.80
2022-11-15T07:50:23.579Z,3.10
2022-11-15T07:51:23.570Z,3.00
2022-11-15T07:52:23.580Z,3.10
2022-11-15T07:53:23.532Z,3.10
2022-11-15T07:54:23.537Z,3.00
2022-11-15T07:55:23.524Z,2.70
2022-11-15T07:56:23.521Z,3.00
2022-11-15T07:57:23.495Z,3.00
2022-11-15T07:58:23.524Z,3.20
2022-11-15T07:59:23.478Z,3.10
2022-11-15T08:00:23.475Z,3.00
2022-11-15T08:01:23.670Z,3.30
2022-11-15T08:02:27.674Z,3.00
2022-11-15T08:03:23.454Z,3.30
2022-11-15T08:04:23.435Z,3.30
2022-11-15T08:05:23.449Z,2.80
2022-11-15T08:06:23.413Z,3.20
2022-11-15T08:07:23.493Z,3.10
2022-11-15T08:08:23.393Z,3.20
2022-11-15T08:09:23.384Z,2.90
2022-11-15T08:10:23.376Z,3.00
2022-11-15T08:11:23.347Z,3.10
2022-11-15T08:12:23.436Z,3.20
2022-11-15T08:13:23.374Z,2.90
2022-11-15T08:14:23.366Z,3.30
2022-11-15T08:15:23.303Z,3.20
2022-11-15T08:16:23.312Z,3.30
2022-11-15T08:17:23.297Z,3.20
2022-11-15T08:18:23.296Z,3.60
2022-11-15T08:19:23.299Z,3.50
2022-11-15T08:20:23.270Z,3.50
2022-11-15T08:21:23.249Z,3.40
2022-11-15T08:22:23.249Z,3.70
2022-11-15T08:23:23.220Z,3.80
2022-11-15T08:24:23.229Z,3.50
2022-11-15T08:25:23.222Z,3.90
2022-11-15T08:26:23.212Z,3.70
2022-11-15T08:27:23.240Z,3.50
2022-11-15T08:28:23.181Z,3.40
2022-11-15T08:29:23.162Z,3.80
2022-11-15T08:30:23.174Z,3.50
2022-11-15T08:31:23.148Z,3.60
2022-11-15T08:32:23.144Z,3.10
2022-11-15T08:33:23.151Z,3.60
2022-11-15T08:34:23.131Z,3.40
2022-11-15T08:35:27.776Z,3.60
2022-11-15T08:36:23.108Z,3.90
2022-11-15T08:37:23.098Z,3.50
2022-11-15T08:38:23.100Z,4.00
2022-11-15T08:39:23.056Z,4.10
2022-11-15T08:40:23.079Z,3.80
2022-11-15T08:41:23.145Z,3.70
2022-11-15T08:42:23.039Z,4.20
2022-11-15T08:43:23.017Z,3.90
2022-11-15T08:44:23.020Z,3.50
2022-11-15T08:45:22.994Z,3.80
2022-11-15T08:46:22.999Z,3.30
2022-11-15T08:47:22.996Z,3.50
2022-11-15T08:48:22.981Z,3.10
2022-11-15T08:49:22.956Z,3.30
2022-11-15T08:50:22.959Z,3.00
2022-11-15T08:51:22.931Z,2.80
2022-11-15T08:52:22.936Z,3.00
2022-11-15T08:53:22.935Z,2.90
2022-11-15T08:54:22.910Z,2.70
2022-11-15T08:55:24.869Z,2.80
2022-11-15T08:56:22.892Z,3.40
2022-11-15T08:57:22.883Z,2.80
2022-11-15T08:58:22.890Z,3.10
2022-11-15T08:59:22.889Z,3.50
2022-11-15T09:00:22.858Z,3.30
2022-11-15T09:01:22.862Z,3.40
2022-11-15T09:02:22.830Z,3.20
2022-11-15T09:03:22.812Z,3.00
2022-11-15T09:04:22.811Z,3.10
2022-11-15T09:05:22.823Z,2.60
2022-11-15T09:06:22.775Z,2.80
2022-11-15T09:07:22.837Z,2.80
2022-11-15T09:08:46.536Z,2.50
2022-11-15T09:09:22.768Z,2.70
2022-11-15T09:10:22.734Z,2.50
2022-11-15T09:11:22.758Z,2.60
2022-11-15T09:12:22.712Z,2.40
2022-11-15T09:13:22.720Z,2.30
2022-11-15T09:14:22.740Z,2.30
2022-11-15T09:15:22.708Z,2.20
2022-11-15T09:16:22.690Z,2.20
2022-11-15T09:17:24.969Z,1.90
2022-11-15T09:18:22.653Z,2.20
2022-11-15T09:19:22.658Z,2.00
2022-11-15T09:20:22.630Z,2.00
2022-11-15T09:21:22.635Z,2.10
2022-11-15T09:22:22.608Z,2.20
2022-11-15T09:23:22.643Z,2.00
2022-11-15T09:24:22.585Z,2.10
2022-11-15T09:25:22.595Z,2.00
2022-11-15T09:26:22.568Z,2.10
2022-11-15T09:27:22.569Z,1.90
2022-11-15T09:28:22.544Z,2.10
2022-11-15T09:29:22.580Z,2.10
2022-11-15T09:30:22.573Z,2.10
2022-11-15T09:31:22.581Z,1.90
2022-11-15T09:32:22.500Z,2.10
2022-11-15T09:33:22.503Z,1.90
2022-11-15T09:34:22.479Z,1.90
2022-11-15T09:35:22.504Z,2.00
2022-11-15T09:36:22.462Z,1.90
2022-11-15T09:37:22.461Z,1.70
2022-11-15T09:38:22.442Z,2.10
2022-11-15T09:39:22.444Z,1.90
2022-11-15T09:40:22.426Z,2.20
2022-11-15T09:41:22.445Z,2.00
2022-11-15T09:42:22.394Z,2.00
2022-11-15T09:43:22.408Z,2.10
2022-11-15T09:44:25.548Z,1.70
2022-11-15T09:45:22.376Z,1.70
2022-11-15T09:46:22.352Z,2.00
2022-11-15T09:47:22.467Z,1.80
2022-11-15T09:48:22.331Z,1.80
2022-11-15T09:49:22.334Z,1.80
2022-11-15T09:50:22.312Z,1.90
2022-11-15T09:51:22.312Z,1.90
2022-11-15T09:52:22.294Z,1.90
2022-11-15T09:53:50.701Z,1.70
2022-11-15T09:55:22.429Z,1.80
2022-11-15T09:56:22.255Z,2.00
2022-11-15T09:57:22.249Z,2.00
2022-11-15T09:58:22.242Z,1.90
2022-11-15T09:59:22.243Z,1.80
2022-11-15T10:01:22.278Z,1.80
2022-11-15T10:02:22.296Z,2.00
2022-11-15T10:03:22.187Z,1.90
2022-11-15T10:04:22.211Z,1.80
2022-11-15T10:05:22.189Z,1.90
2022-11-15T10:06:22.152Z,1.80
2022-11-15T10:07:22.304Z,1.70
2022-11-15T10:08:22.164Z,1.90
2022-11-15T10:09:23.956Z,1.80
2022-11-15T10:10:22.098Z,1.90
2022-11-15T10:11:36.633Z,1.90
2022-11-15T10:12:22.095Z,2.10
2022-11-15T10:13:22.079Z,1.90
2022-11-15T10:14:22.058Z,2.20
2022-11-15T10:15:22.064Z,2.10
2022-11-15T10:16:22.034Z,2.10
2022-11-15T10:17:22.075Z,2.10
2022-11-15T10:18:22.011Z,1.90
2022-11-15T10:19:22.026Z,2.00
2022-11-15T10:20:21.993Z,2.10
2022-11-15T10:21:21.993Z,2.20
2022-11-15T10:22:21.977Z,2.50
2022-11-15T10:23:21.987Z,2.40
2022-11-15T10:24:21.971Z,2.80
2022-11-15T10:25:21.952Z,2.20
2022-11-15T10:26:21.939Z,1.90
2022-11-15T10:27:21.936Z,2.00
2022-11-15T10:28:21.907Z,2.20
2022-11-15T10:29:26.905Z,1.80
2022-11-15T10:30:21.896Z,2.10
2022-11-15T10:31:21.894Z,2.00
2022-11-15T10:32:21.884Z,1.60
2022-11-15T10:33:21.873Z,1.90
2022-11-15T10:34:21.846Z,2.00
2022-11-15T10:35:21.860Z,2.20
2022-11-15T10:36:21.841Z,2.50
2022-11-15T10:37:21.834Z,2.10
2022-11-15T10:38:21.804Z,2.10
2022-11-15T10:39:21.809Z,2.00
2022-11-15T10:40:21.790Z,1.80
2022-11-15T10:41:21.803Z,1.90
2022-11-15T10:42:21.757Z,2.00
2022-11-15T10:43:21.765Z,2.00
2022-11-15T10:44:21.735Z,2.00
2022-11-15T10:45:21.740Z,1.80
2022-11-15T10:46:44.991Z,1.70
2022-11-15T10:47:21.747Z,2.00
2022-11-15T10:48:21.743Z,2.00
2022-11-15T10:49:21.697Z,1.80
2022-11-15T10:50:21.692Z,1.90
2022-11-15T10:51:21.683Z,1.90
2022-11-15T10:52:21.652Z,1.80
2022-11-15T10:53:21.683Z,1.60
2022-11-15T10:54:21.630Z,1.90
2022-11-15T10:55:21.631Z,1.80
2022-11-15T10:56:21.610Z,1.90
2022-11-15T10:57:21.622Z,2.10
2022-11-15T10:58:21.589Z,2.00
2022-11-15T10:59:21.614Z,1.90
2022-11-15T11:00:21.574Z,2.00
2022-11-15T11:01:21.602Z,2.20
2022-11-15T11:02:21.557Z,1.90
2022-11-15T11:03:21.562Z,1.90
2022-11-15T11:04:21.528Z,1.70
2022-11-15T11:05:21.541Z,1.80
2022-11-15T11:06:21.508Z,1.90
2022-11-15T11:07:21.574Z,1.60
2022-11-15T11:08:21.481Z,1.90
2022-11-15T11:09:21.493Z,1.90
2022-11-15T11:10:50.939Z,1.90
2022-11-15T11:11:21.484Z,1.90
2022-11-15T11:12:21.442Z,1.60
2022-11-15T11:13:21.481Z,1.90
2022-11-15T11:14:21.437Z,2.10
2022-11-15T11:15:21.417Z,2.00
2022-11-15T11:16:21.410Z,2.10
2022-11-15T11:17:21.416Z,1.90
2022-11-15T11:18:21.388Z,1.70
2022-11-15T11:19:21.375Z,2.00
2022-11-15T11:20:21.374Z,2.20
2022-11-15T11:21:24.488Z,1.80
2022-11-15T11:22:21.338Z,2.10
2022-11-15T11:23:21.376Z,1.90
2022-11-15T11:24:21.312Z,1.80
2022-11-15T11:25:21.311Z,1.90
2022-11-15T11:26:21.290Z,1.90
2022-11-15T11:27:21.289Z,2.00
2022-11-15T11:28:21.284Z,1.90
2022-11-15T11:29:21.286Z,1.90
2022-11-15T11:30:21.246Z,2.00
2022-11-15T11:31:21.266Z,1.80
2022-11-15T11:32:21.233Z,1.90
2022-11-15T11:33:21.247Z,2.00
2022-11-15T11:34:21.229Z,2.10
2022-11-15T11:35:21.220Z,1.90
2022-11-15T11:36:21.188Z,2.20
2022-11-15T11:37:21.187Z,1.90
2022-11-15T11:38:21.162Z,1.90
2022-11-15T11:39:21.179Z,2.10
2022-11-15T11:40:21.139Z,2.00
2022-11-15T11:41:21.178Z,2.30
2022-11-15T11:42:21.125Z,2.20
2022-11-15T11:43:21.133Z,2.10
2022-11-15T11:44:21.098Z,2.20
2022-11-15T11:45:21.105Z,2.00
2022-11-15T11:46:21.076Z,2.00
2022-11-15T11:47:21.101Z,2.10
2022-11-15T11:48:21.054Z,2.10
2022-11-15T11:49:21.080Z,2.10
2022-11-15T11:50:21.031Z,2.00
2022-11-15T11:51:21.035Z,2.30
2022-11-15T11:52:21.018Z,2.60
2022-11-15T11:53:21.028Z,3.40
2022-11-15T11:54:20.990Z,2.70
2022-11-15T11:55:21.102Z,2.30
2022-11-15T11:56:20.969Z,2.10
2022-11-15T11:57:20.974Z,2.00
2022-11-15T11:58:20.965Z,2.30
2022-11-15T11:59:20.977Z,2.10
2022-11-15T12:00:20.925Z,2.30
2022-11-15T12:01:20.942Z,2.10
2022-11-15T12:02:21.061Z,2.80
2022-11-15T12:03:20.942Z,2.30
2022-11-15T12:04:20.884Z,2.10
2022-11-15T12:05:20.900Z,2.20
2022-11-15T12:06:20.862Z,2.70
2022-11-15T12:07:20.893Z,2.30
2022-11-15T12:08:20.842Z,2.20
2022-11-15T12:09:20.846Z,2.00
2022-11-15T12:10:20.833Z,2.30
2022-11-15T12:11:20.834Z,2.00
2022-11-15T12:12:20.803Z,2.00
2022-11-15T12:13:20.803Z,1.90
2022-11-15T12:14:20.778Z,1.80
2022-11-15T12:15:20.776Z,2.10
2022-11-15T12:16:20.753Z,2.10
2022-11-15T12:17:20.799Z,2.10
2022-11-15T12:18:20.741Z,2.20
2022-11-15T12:19:20.755Z,2.10
2022-11-15T12:20:20.724Z,2.20
2022-11-15T12:21:25.361Z,2.10
2022-11-15T12:22:20.698Z,2.00
2022-11-15T12:23:20.725Z,1.90
2022-11-15T12:24:20.681Z,1.90
2022-11-15T12:25:20.670Z,2.00
2022-11-15T12:26:20.662Z,2.20
2022-11-15T12:27:26.326Z,2.10
2022-11-15T12:28:20.632Z,2.20
2022-11-15T12:29:20.664Z,2.30
2022-11-15T12:30:20.608Z,2.30
2022-11-15T12:31:20.607Z,2.60
2022-11-15T12:32:20.584Z,2.00
2022-11-15T12:33:20.592Z,2.40
2022-11-15T12:34:20.559Z,2.50
2022-11-15T12:35:20.587Z,2.50
2022-11-15T12:36:20.543Z,2.10
2022-11-15T12:37:20.548Z,2.40
2022-11-15T12:38:20.539Z,2.20
2022-11-15T12:39:20.527Z,1.80
2022-11-15T12:40:20.502Z,1.90
2022-11-15T12:41:20.537Z,1.70
2022-11-15T12:42:20.481Z,1.90
2022-11-15T12:43:20.493Z,1.90
2022-11-15T12:44:20.457Z,2.70
2022-11-15T12:45:20.457Z,2.20
2022-11-15T12:46:20.454Z,1.70
2022-11-15T12:47:23.159Z,1.80
2022-11-15T12:48:20.411Z,1.90
2022-11-15T12:49:20.417Z,1.80
2022-11-15T12:50:20.397Z,1.70
2022-11-15T12:51:20.396Z,1.80
2022-11-15T12:52:20.371Z,1.80
2022-11-15T12:53:20.394Z,1.50
2022-11-15T12:54:20.348Z,1.50
2022-11-15T12:55:20.354Z,1.50
2022-11-15T12:56:20.328Z,1.60
2022-11-15T12:57:20.354Z,1.50
2022-11-15T12:58:20.317Z,1.40
2022-11-15T12:59:20.337Z,1.50
2022-11-15T13:00:25.030Z,1.40
2022-11-15T13:01:20.375Z,1.50
2022-11-15T13:02:20.278Z,1.40
2022-11-15T13:03:20.268Z,1.30
2022-11-15T13:04:20.238Z,1.60
2022-11-15T13:05:20.271Z,1.60
2022-11-15T13:06:20.220Z,1.50
2022-11-15T13:07:20.277Z,1.50
2022-11-15T13:08:20.198Z,1.90
2022-11-15T13:09:20.203Z,1.80
2022-11-15T13:10:25.167Z,2.00
2022-11-15T13:11:20.214Z,1.70
2022-11-15T13:12:20.155Z,1.50